Weather at Tilichiki Airport

Public forecast

Using degrees Celsius for public forecast. Weather courtesy of forecast.io.

Closest aviation weather report (METAR) to Tilichiki Airport

Closest report is Sokol Airport, 457.3 nm (846.9 km) W. Retrieved 2021/03/04 19:00 UTC (2 hours ago):

UHMM 041900Z 03001MPS 9999 NSC M37/M41 Q0998 RMK QFE734 R28/08003MPS

Closest aviation forecast (TAF) to Tilichiki Airport

Forecast is more than 12 hours old.

Closest forecast is Severo-Evensk Airport, 217.4 nm (402.6 km) WNW. Retrieved 2013/05/23 03:00 UTC (8 years ago):

TAF UHMW 230130Z 2303/2309 22004MPS 9999 NSC